Seabourn Pride — C6FR5 — position and weather

sailwx.info

Track history (hours):
 
Tides and Currents Weather Stations Pressure Air Temp Water Temp Dewpoint Dewpoint Depression Visibility Wind Speed Wind Dir Waves Ship Positions

Seabourn Pride

Operator: Cunard Seabourn

Last reported at 2017-Jul-15 02:32 UTC. Time now 2017-Jul-24 08:29 UTC.
Position N 62°42' W 007°24'.
Warning: this ship's position is 9 days out of date.

Length 134 m; draft 5.7 m.

Type: Ship. MMSI: 311084000.

Date/timePositionNaut miles runAvg speedWind from/ knotsBaromVisibWave heightAir tempDewpointWater temp
2017-Jul-15 02:32N 62°42' W 007°24'213.4
2017-Jul-15 02:25N 62°42' W 007°20'513.3
2017-Jul-15 02:00N 62°41' W 007°08'33512.1
2017-Jul-13 22:22N 62°30' E 004°59'513.2
2017-Jul-13 21:59N 62°30' E 005°10'613.0
2017-Jul-13 21:30N 62°31' E 005°24'612.9
2017-Jul-13 21:00N 62°31' E 005°37'713.1
2017-Jul-13 20:29N 62°28' E 005°50'611.4
2017-Jul-13 20:00N 62°28' E 006°02'612.2
2017-Jul-13 19:30N 62°33' E 006°10'510.3
2017-Jul-13 19:00N 62°36' E 006°17'612.6
2017-Jul-13 18:30N 62°38' E 006°31'713.7
2017-Jul-13 18:00N 62°40' E 006°45'713.9
2017-Jul-13 17:30N 62°43' E 006°59'5 8.7
2017-Jul-13 16:56N 62°44' E 007°09'0 0.0
2017-Jul-13 16:29N 62°44' E 007°09'0 0.0
2017-Jul-13 15:53N 62°44' E 007°09'0 0.0
2017-Jul-13 15:29N 62°44' E 007°09'0 0.0
2017-Jul-13 14:53N 62°44' E 007°09'0 0.0
2017-Jul-13 14:29N 62°44' E 007°09'0 0.0
2017-Jul-13 13:35N 62°44' E 007°09'0 0.0
2017-Jul-13 13:23N 62°44' E 007°09'0 0.0
2017-Jul-13 12:53N 62°44' E 007°09'0 0.0
2017-Jul-13 12:29N 62°44' E 007°09'0 0.0
2017-Jul-13 11:59N 62°44' E 007°09'0 0.0
2017-Jul-13 11:29N 62°44' E 007°09'0 0.0
2017-Jul-13 10:47N 62°44' E 007°09'0 0.0
2017-Jul-13 10:17N 62°44' E 007°09'0 0.0
2017-Jul-13 09:53N 62°44' E 007°09'0 0.0
2017-Jul-13 09:23N 62°44' E 007°09'0 0.0
2017-Jul-13 08:53N 62°44' E 007°09'0 0.0
2017-Jul-13 08:29N 62°44' E 007°09'0 0.0
2017-Jul-13 07:41N 62°44' E 007°09'0 0.0
2017-Jul-13 07:17N 62°44' E 007°09'0 0.0
2017-Jul-13 06:47N 62°44' E 007°09'0 0.0
2017-Jul-13 06:17N 62°44' E 007°09'0 0.0
2017-Jul-13 05:59N 62°44' E 007°09'0 0.1
2017-Jul-13 05:30N 62°44' E 007°09'2 4.9
2017-Jul-13 05:00N 62°43' E 007°04'4 7.2
2017-Jul-13 04:29N 62°42' E 006°57'4 7.3
2017-Jul-13 04:00N 62°41' E 006°50'5 9.7
2017-Jul-13 03:30N 62°39' E 006°40'510.8
2017-Jul-13 03:00N 62°38' E 006°29'510.2
2017-Jul-13 02:30N 62°37' E 006°18'5 9.5
2017-Jul-13 02:00N 62°33' E 006°10'4 8.5
2017-Jul-13 01:30N 62°29' E 006°08'510.2
2017-Jul-13 01:00N 62°27' E 005°58'3 6.6
2017-Jul-13 00:30N 62°28' E 005°51'3 6.2
2017-Jul-13 00:00N 62°29' E 005°45'3 6.7
2017-Jul-12 23:30N 62°32' E 005°40'4 7.3
2017-Jul-12 23:00N 62°35' E 005°35'4 7.4
2017-Jul-12 22:30N 62°37' E 005°28'3 7.0
2017-Jul-12 22:00N 62°34' E 005°23'2 3.7
2017-Jul-12 21:30N 62°33' E 005°24'3 6.4
2017-Jul-12 21:00N 62°31' E 005°31'3 6.1
2017-Jul-12 20:29N 62°31' E 005°37'2 4.0
2017-Jul-12 20:00N 62°30' E 005°41'1 2.7
2017-Jul-12 19:29N 62°30' E 005°44'1 2.8
2017-Jul-12 19:00N 62°29' E 005°46'2 3.6
2017-Jul-12 18:30N 62°28' E 005°50'2 4.2
2017-Jul-12 18:00N 62°27' E 005°54'5 9.2
2017-Jul-12 17:30N 62°27' E 006°04'3 5.1
2017-Jul-12 16:56N 62°28' E 006°09'0 0.0
2017-Jul-12 16:27N 62°28' E 006°09'0 0.0
2017-Jul-12 15:58N 62°28' E 006°09'0 0.0
2017-Jul-12 15:31N 62°28' E 006°09'0 0.0
2017-Jul-12 14:48N 62°28' E 006°09'0 0.0
2017-Jul-12 13:50N 62°28' E 006°09'0 0.0
2017-Jul-12 13:24N 62°28' E 006°09'0 0.0
2017-Jul-12 12:58N 62°28' E 006°09'0 0.0
2017-Jul-12 12:28N 62°28' E 006°09'0 0.0
2017-Jul-12 11:58N 62°28' E 006°09'0 0.0
2017-Jul-12 11:26N 62°28' E 006°09'0 0.0
2017-Jul-12 10:57N 62°28' E 006°09'0 0.0
2017-Jul-12 10:23N 62°28' E 006°09'0 0.0
2017-Jul-12 09:59N 62°28' E 006°09'0 0.0
2017-Jul-12 09:30N 62°28' E 006°09'0 0.0
2017-Jul-12 08:51N 62°28' E 006°09'0 0.0
2017-Jul-12 08:15N 62°28' E 006°09'0 0.0
2017-Jul-12 07:59N 62°28' E 006°09'0 0.0
2017-Jul-12 07:14N 62°28' E 006°09'0 0.0
2017-Jul-12 06:57N 62°28' E 006°09'0 0.0
2017-Jul-12 06:28N 62°28' E 006°09'0 0.0
2017-Jul-12 05:41N 62°28' E 006°09'0 0.0
2017-Jul-12 05:25N 62°28' E 006°09'0 0.9
2017-Jul-12 05:00N 62°28' E 006°09'2 3.2
2017-Jul-12 04:30N 62°27' E 006°06'510.4
2017-Jul-12 03:59N 62°27' E 005°55'510.4
2017-Jul-12 03:30N 62°29' E 005°45'4 8.7
2017-Jul-12 03:00N 62°31' E 005°36'4 7.4
2017-Jul-12 02:30N 62°30' E 005°28'4 7.9
2017-Jul-12 01:59N 62°28' E 005°20'4 9.1
2017-Jul-12 01:30N 62°25' E 005°13'5 9.3
2017-Jul-12 01:00N 62°22' E 005°05'5 9.3
2017-Jul-12 00:30N 62°19' E 004°59'5 9.3
2017-Jul-12 00:00N 62°15' E 004°53'5 9.7
2017-Jul-11 23:30N 62°11' E 004°47'510.0
2017-Jul-11 22:59N 62°06' E 004°47'510.1
2017-Jul-11 22:30N 62°01' E 004°47'5 9.2
2017-Jul-11 22:00N 61°58' E 004°55'5 9.7
2017-Jul-11 21:30N 61°55' E 005°03'5 9.9
2017-Jul-11 21:00N 61°54' E 005°13'510.5
2017-Jul-11 20:30N 61°55' E 005°24'510.1
2017-Jul-11 20:00N 61°55' E 005°35'4 0.2
2017-Jul-11 04:07N 61°53' E 005°43'111.8
2017-Jul-11 04:00N 61°54' E 005°40'611.9
2017-Jul-11 03:29N 61°55' E 005°27'611.6
2017-Jul-11 02:59N 61°54' E 005°15'510.7
2017-Jul-11 02:30N 61°55' E 005°04'510.4
2017-Jul-11 02:00N 61°58' E 004°55'5 9.8
2017-Jul-11 01:30N 61°57' E 004°45'510.0
2017-Jul-11 01:00N 61°53' E 004°40'510.2
2017-Jul-11 00:30N 61°49' E 004°35'510.8
2017-Jul-11 00:00N 61°44' E 004°29'510.4
2017-Jul-10 23:30N 61°40' E 004°23'3711.8
2017-Jul-10 20:20N 61°02' E 004°15'412.3
2017-Jul-10 20:00N 60°59' E 004°18'712.6
2017-Jul-10 19:29N 60°52' E 004°22'611.9
2017-Jul-10 19:00N 60°48' E 004°29'612.0
2017-Jul-10 18:30N 60°45' E 004°40'5 9.0
2017-Jul-10 18:00N 60°43' E 004°48'510.8
2017-Jul-10 17:30N 60°38' E 004°53'511.0
2017-Jul-10 17:00N 60°33' E 004°56'610.7
2017-Jul-10 16:29N 60°28' E 005°01'510.1
2017-Jul-10 15:59N 60°24' E 005°08'4 9.3
2017-Jul-10 15:30N 60°24' E 005°17'1 0.7
2017-Jul-10 14:07N 60°24' E 005°19'0 0.0
2017-Jul-10 13:43N 60°24' E 005°19'0 0.0
2017-Jul-10 12:43N 60°24' E 005°19'0 0.0
2017-Jul-10 12:19N 60°24' E 005°19'0 0.0
2017-Jul-10 11:49N 60°24' E 005°19'0 0.0
2017-Jul-10 11:25N 60°24' E 005°19'0 0.0
2017-Jul-10 10:55N 60°24' E 005°19'0 0.0
2017-Jul-10 10:25N 60°24' E 005°19'0 0.0
2017-Jul-10 08:55N 60°24' E 005°19'0 0.0
2017-Jul-10 08:25N 60°24' E 005°19'0 0.0
2017-Jul-10 07:55N 60°24' E 005°19'0 0.0
2017-Jul-10 07:25N 60°24' E 005°19'0 0.0
2017-Jul-10 06:43N 60°24' E 005°19'0 0.0
2017-Jul-10 06:25N 60°24' E 005°19'0 0.0
2017-Jul-10 06:00N 60°24' E 005°19'3 5.5
2017-Jul-10 05:30N 60°24' E 005°13'611.4
2017-Jul-10 04:59N 60°18' E 005°12'612.4
2017-Jul-10 04:30N 60°12' E 005°11'611.7
2017-Jul-10 04:00N 60°09' E 005°01'5 9.1
2017-Jul-10 03:30N 60°08' E 004°52'4 7.6
2017-Jul-10 03:00N 60°07' E 004°45'4 7.4
2017-Jul-10 02:30N 60°06' E 004°38'223 7.3
2017-Jul-08 19:52N 59°02' W 002°23'410.7
2017-Jul-08 19:30N 59°01' W 002°30'611.4
2017-Jul-08 19:00N 59°00' W 002°41'611.1
2017-Jul-08 18:30N 59°01' W 002°51'3 6.7
2017-Jul-08 18:00N 58°60' W 002°58'0 0.2
2017-Jul-08 17:26N 58°60' W 002°58'0 0.0
2017-Jul-08 16:59N 58°60' W 002°58'0 0.0
2017-Jul-08 16:29N 58°60' W 002°58'0 0.1
2017-Jul-08 15:59N 58°60' W 002°58'0 0.0
2017-Jul-08 15:29N 58°60' W 002°58'0 0.1
2017-Jul-08 14:59N 58°60' W 002°58'0 0.0
2017-Jul-08 13:50N 58°60' W 002°58'0 0.0
2017-Jul-08 13:29N 58°60' W 002°58'0 0.0
2017-Jul-08 12:56N 58°60' W 002°58'0 0.0
2017-Jul-08 12:26N 58°60' W 002°58'0 0.0
2017-Jul-08 11:59N 58°60' W 002°58'0 0.0
2017-Jul-08 11:29N 58°60' W 002°58'0 0.0
2017-Jul-08 10:59N 58°60' W 002°58'0 0.0
2017-Jul-08 10:23N 58°60' W 002°58'0 0.1
2017-Jul-08 09:53N 58°60' W 002°57'0 0.0
2017-Jul-08 09:29N 58°60' W 002°57'0 0.0
2017-Jul-08 08:56N 58°60' W 002°57'0 0.0
2017-Jul-08 08:29N 58°60' W 002°58'0 0.0
2017-Jul-08 07:59N 58°60' W 002°57'0 0.0
2017-Jul-08 07:29N 58°60' W 002°58'0 0.0
2017-Jul-08 06:53N 58°60' W 002°58'0 0.0
2017-Jul-08 06:29N 58°60' W 002°58'0 0.0
2017-Jul-08 05:56N 58°60' W 002°57'0 0.0
2017-Jul-08 05:29N 58°60' W 002°57'0 0.0
2017-Jul-08 04:50N 58°60' W 002°58'0 0.0
2017-Jul-08 04:23N 58°60' W 002°58'0 0.0
2017-Jul-08 03:59N 58°60' W 002°58'0 0.0
2017-Jul-08 03:17N 58°60' W 002°58'0 0.0
2017-Jul-08 02:53N 58°60' W 002°58'0 0.0
2017-Jul-08 02:26N 58°60' W 002°58'0 0.0
2017-Jul-08 01:53N 58°60' W 002°57'0 0.0
2017-Jul-08 01:29N 58°60' W 002°57'0 0.1
2017-Jul-08 00:56N 58°60' W 002°57'0 0.0
2017-Jul-08 00:23N 58°60' W 002°57'0 0.0
2017-Jul-07 23:56N 58°60' W 002°57'0 0.1
2017-Jul-07 23:29N 58°60' W 002°58'0 0.1
2017-Jul-07 22:56N 58°60' W 002°57'0 0.0
2017-Jul-07 22:29N 58°60' W 002°57'0 0.0
2017-Jul-07 21:59N 58°60' W 002°57'0 0.0
2017-Jul-07 21:29N 58°60' W 002°57'0 0.0
2017-Jul-07 20:59N 58°60' W 002°57'0 0.0
2017-Jul-07 20:29N 58°60' W 002°57'0 0.0
2017-Jul-07 19:59N 58°60' W 002°57'0 0.0
2017-Jul-07 19:29N 58°60' W 002°57'0 0.0
2017-Jul-07 18:59N 58°60' W 002°58'0 0.0
2017-Jul-07 18:26N 58°60' W 002°57'0 0.1
2017-Jul-07 17:56N 58°60' W 002°57'0 0.0
2017-Jul-07 17:29N 58°60' W 002°58'0 0.0
2017-Jul-07 16:59N 58°60' W 002°57'0 0.0
2017-Jul-07 16:29N 58°60' W 002°57'0 0.0
2017-Jul-07 15:59N 58°60' W 002°57'0 0.0
2017-Jul-07 15:29N 58°60' W 002°58'0 0.0
2017-Jul-07 14:50N 58°60' W 002°57'0 0.0
2017-Jul-07 13:59N 58°60' W 002°57'0 0.1
2017-Jul-07 13:29N 58°60' W 002°58'0 0.0
2017-Jul-07 12:59N 58°60' W 002°58'0 0.1
2017-Jul-07 12:29N 58°60' W 002°58'0 0.1
2017-Jul-07 11:56N 58°60' W 002°58'0 0.8
2017-Jul-07 11:28N 59°00' W 002°57'3 7.0
2017-Jul-07 11:00N 59°01' W 002°51'510.3
2017-Jul-07 10:30N 58°59' W 002°42'510.9
2017-Jul-07 10:00N 58°54' W 002°36'611.2
2017-Jul-07 09:30N 58°49' W 002°33'5710.7
2017-Jul-07 04:13N 57°56' W 001°57'510.3
2017-Jul-07 03:44N 57°52' W 001°51'310.6
2017-Jul-07 03:30N 57°49' W 001°50'510.5
2017-Jul-07 03:00N 57°44' W 001°46'510.5
2017-Jul-07 02:30N 57°40' W 001°43'4 8.9
2017-Jul-07 02:00N 57°35' W 001°41'713.0
2017-Jul-07 01:30N 57°29' W 001°38'812.8
2017-Jul-07 00:52N 57°21' W 001°36'513.1
2017-Jul-07 00:28N 57°16' W 001°35'612.7
2017-Jul-07 00:00N 57°10' W 001°36'812.7
2017-Jul-06 23:24N 57°03' W 001°42'41 1.1
2017-Jul-05 08:30N 57°43' W 001°51'3 5.6
2017-Jul-05 08:00N 57°45' W 001°55'2 5.0
2017-Jul-05 07:30N 57°47' W 001°58'3 5.3
2017-Jul-05 07:00N 57°48' W 002°03'  
Track history (hours):
 
Tides and Currents Weather Stations Pressure Air Temp Water Temp Dewpoint Dewpoint Depression Visibility Wind Speed Wind Dir Waves Ship Positions

Seabourn Pride

Operator: Cunard Seabourn

Last reported at 2017-Jul-15 02:32 UTC. Time now 2017-Jul-24 08:29 UTC.
Position N 62°42' W 007°24'.
Warning: this ship's position is 9 days out of date.

Length 134 m; draft 5.7 m.

Type: Ship. MMSI: 311084000.

Date/timePositionNaut miles runAvg speedWind from/ knotsBaromVisibWave heightAir tempDewpointWater temp
2017-Jul-15 02:32N 62°42' W 007°24'213.4
2017-Jul-15 02:25N 62°42' W 007°20'513.3
2017-Jul-15 02:00N 62°41' W 007°08'33512.1
2017-Jul-13 22:22N 62°30' E 004°59'513.2
2017-Jul-13 21:59N 62°30' E 005°10'613.0
2017-Jul-13 21:30N 62°31' E 005°24'612.9
2017-Jul-13 21:00N 62°31' E 005°37'713.1
2017-Jul-13 20:29N 62°28' E 005°50'611.4
2017-Jul-13 20:00N 62°28' E 006°02'612.2
2017-Jul-13 19:30N 62°33' E 006°10'510.3
2017-Jul-13 19:00N 62°36' E 006°17'612.6
2017-Jul-13 18:30N 62°38' E 006°31'713.7
2017-Jul-13 18:00N 62°40' E 006°45'713.9
2017-Jul-13 17:30N 62°43' E 006°59'5 8.7
2017-Jul-13 16:56N 62°44' E 007°09'0 0.0
2017-Jul-13 16:29N 62°44' E 007°09'0 0.0
2017-Jul-13 15:53N 62°44' E 007°09'0 0.0
2017-Jul-13 15:29N 62°44' E 007°09'0 0.0
2017-Jul-13 14:53N 62°44' E 007°09'0 0.0
2017-Jul-13 14:29N 62°44' E 007°09'0 0.0
2017-Jul-13 13:35N 62°44' E 007°09'0 0.0
2017-Jul-13 13:23N 62°44' E 007°09'0 0.0
2017-Jul-13 12:53N 62°44' E 007°09'0 0.0
2017-Jul-13 12:29N 62°44' E 007°09'0 0.0
2017-Jul-13 11:59N 62°44' E 007°09'0 0.0
2017-Jul-13 11:29N 62°44' E 007°09'0 0.0
2017-Jul-13 10:47N 62°44' E 007°09'0 0.0
2017-Jul-13 10:17N 62°44' E 007°09'0 0.0
2017-Jul-13 09:53N 62°44' E 007°09'0 0.0
2017-Jul-13 09:23N 62°44' E 007°09'0 0.0
2017-Jul-13 08:53N 62°44' E 007°09'0 0.0
2017-Jul-13 08:29N 62°44' E 007°09'0 0.0
2017-Jul-13 07:41N 62°44' E 007°09'0 0.0
2017-Jul-13 07:17N 62°44' E 007°09'0 0.0
2017-Jul-13 06:47N 62°44' E 007°09'0 0.0
2017-Jul-13 06:17N 62°44' E 007°09'0 0.0
2017-Jul-13 05:59N 62°44' E 007°09'0 0.1
2017-Jul-13 05:30N 62°44' E 007°09'2 4.9
2017-Jul-13 05:00N 62°43' E 007°04'4 7.2
2017-Jul-13 04:29N 62°42' E 006°57'4 7.3
2017-Jul-13 04:00N 62°41' E 006°50'5 9.7
2017-Jul-13 03:30N 62°39' E 006°40'510.8
2017-Jul-13 03:00N 62°38' E 006°29'510.2
2017-Jul-13 02:30N 62°37' E 006°18'5 9.5
2017-Jul-13 02:00N 62°33' E 006°10'4 8.5
2017-Jul-13 01:30N 62°29' E 006°08'510.2
2017-Jul-13 01:00N 62°27' E 005°58'3 6.6
2017-Jul-13 00:30N 62°28' E 005°51'3 6.2
2017-Jul-13 00:00N 62°29' E 005°45'3 6.7
2017-Jul-12 23:30N 62°32' E 005°40'4 7.3
2017-Jul-12 23:00N 62°35' E 005°35'4 7.4
2017-Jul-12 22:30N 62°37' E 005°28'3 7.0
2017-Jul-12 22:00N 62°34' E 005°23'2 3.7
2017-Jul-12 21:30N 62°33' E 005°24'3 6.4
2017-Jul-12 21:00N 62°31' E 005°31'3 6.1
2017-Jul-12 20:29N 62°31' E 005°37'2 4.0
2017-Jul-12 20:00N 62°30' E 005°41'1 2.7
2017-Jul-12 19:29N 62°30' E 005°44'1 2.8
2017-Jul-12 19:00N 62°29' E 005°46'2 3.6
2017-Jul-12 18:30N 62°28' E 005°50'2 4.2
2017-Jul-12 18:00N 62°27' E 005°54'5 9.2
2017-Jul-12 17:30N 62°27' E 006°04'3 5.1
2017-Jul-12 16:56N 62°28' E 006°09'0 0.0
2017-Jul-12 16:27N 62°28' E 006°09'0 0.0
2017-Jul-12 15:58N 62°28' E 006°09'0 0.0
2017-Jul-12 15:31N 62°28' E 006°09'0 0.0
2017-Jul-12 14:48N 62°28' E 006°09'0 0.0
2017-Jul-12 13:50N 62°28' E 006°09'0 0.0
2017-Jul-12 13:24N 62°28' E 006°09'0 0.0
2017-Jul-12 12:58N 62°28' E 006°09'0 0.0
2017-Jul-12 12:28N 62°28' E 006°09'0 0.0
2017-Jul-12 11:58N 62°28' E 006°09'0 0.0
2017-Jul-12 11:26N 62°28' E 006°09'0 0.0
2017-Jul-12 10:57N 62°28' E 006°09'0 0.0
2017-Jul-12 10:23N 62°28' E 006°09'0 0.0
2017-Jul-12 09:59N 62°28' E 006°09'0 0.0
2017-Jul-12 09:30N 62°28' E 006°09'0 0.0
2017-Jul-12 08:51N 62°28' E 006°09'0 0.0
2017-Jul-12 08:15N 62°28' E 006°09'0 0.0
2017-Jul-12 07:59N 62°28' E 006°09'0 0.0
2017-Jul-12 07:14N 62°28' E 006°09'0 0.0
2017-Jul-12 06:57N 62°28' E 006°09'0 0.0
2017-Jul-12 06:28N 62°28' E 006°09'0 0.0
2017-Jul-12 05:41N 62°28' E 006°09'0 0.0
2017-Jul-12 05:25N 62°28' E 006°09'0 0.9
2017-Jul-12 05:00N 62°28' E 006°09'2 3.2
2017-Jul-12 04:30N 62°27' E 006°06'510.4
2017-Jul-12 03:59N 62°27' E 005°55'510.4
2017-Jul-12 03:30N 62°29' E 005°45'4 8.7
2017-Jul-12 03:00N 62°31' E 005°36'4 7.4
2017-Jul-12 02:30N 62°30' E 005°28'4 7.9
2017-Jul-12 01:59N 62°28' E 005°20'4 9.1
2017-Jul-12 01:30N 62°25' E 005°13'5 9.3
2017-Jul-12 01:00N 62°22' E 005°05'5 9.3
2017-Jul-12 00:30N 62°19' E 004°59'5 9.3
2017-Jul-12 00:00N 62°15' E 004°53'5 9.7
2017-Jul-11 23:30N 62°11' E 004°47'510.0
2017-Jul-11 22:59N 62°06' E 004°47'510.1
2017-Jul-11 22:30N 62°01' E 004°47'5 9.2
2017-Jul-11 22:00N 61°58' E 004°55'5 9.7
2017-Jul-11 21:30N 61°55' E 005°03'5 9.9
2017-Jul-11 21:00N 61°54' E 005°13'510.5
2017-Jul-11 20:30N 61°55' E 005°24'510.1
2017-Jul-11 20:00N 61°55' E 005°35'4 0.2
2017-Jul-11 04:07N 61°53' E 005°43'111.8
2017-Jul-11 04:00N 61°54' E 005°40'611.9
2017-Jul-11 03:29N 61°55' E 005°27'611.6
2017-Jul-11 02:59N 61°54' E 005°15'510.7
2017-Jul-11 02:30N 61°55' E 005°04'510.4
2017-Jul-11 02:00N 61°58' E 004°55'5 9.8
2017-Jul-11 01:30N 61°57' E 004°45'510.0
2017-Jul-11 01:00N 61°53' E 004°40'510.2
2017-Jul-11 00:30N 61°49' E 004°35'510.8
2017-Jul-11 00:00N 61°44' E 004°29'510.4
2017-Jul-10 23:30N 61°40' E 004°23'3711.8
2017-Jul-10 20:20N 61°02' E 004°15'412.3
2017-Jul-10 20:00N 60°59' E 004°18'712.6
2017-Jul-10 19:29N 60°52' E 004°22'611.9
2017-Jul-10 19:00N 60°48' E 004°29'612.0
2017-Jul-10 18:30N 60°45' E 004°40'5 9.0
2017-Jul-10 18:00N 60°43' E 004°48'510.8
2017-Jul-10 17:30N 60°38' E 004°53'511.0
2017-Jul-10 17:00N 60°33' E 004°56'610.7
2017-Jul-10 16:29N 60°28' E 005°01'510.1
2017-Jul-10 15:59N 60°24' E 005°08'4 9.3
2017-Jul-10 15:30N 60°24' E 005°17'1 0.7
2017-Jul-10 14:07N 60°24' E 005°19'0 0.0
2017-Jul-10 13:43N 60°24' E 005°19'0 0.0
2017-Jul-10 12:43N 60°24' E 005°19'0 0.0
2017-Jul-10 12:19N 60°24' E 005°19'0 0.0
2017-Jul-10 11:49N 60°24' E 005°19'0 0.0
2017-Jul-10 11:25N 60°24' E 005°19'0 0.0
2017-Jul-10 10:55N 60°24' E 005°19'0 0.0
2017-Jul-10 10:25N 60°24' E 005°19'0 0.0
2017-Jul-10 08:55N 60°24' E 005°19'0 0.0
2017-Jul-10 08:25N 60°24' E 005°19'0 0.0
2017-Jul-10 07:55N 60°24' E 005°19'0 0.0
2017-Jul-10 07:25N 60°24' E 005°19'0 0.0
2017-Jul-10 06:43N 60°24' E 005°19'0 0.0
2017-Jul-10 06:25N 60°24' E 005°19'0 0.0
2017-Jul-10 06:00N 60°24' E 005°19'3 5.5
2017-Jul-10 05:30N 60°24' E 005°13'611.4
2017-Jul-10 04:59N 60°18' E 005°12'612.4
2017-Jul-10 04:30N 60°12' E 005°11'611.7
2017-Jul-10 04:00N 60°09' E 005°01'5 9.1
2017-Jul-10 03:30N 60°08' E 004°52'4 7.6
2017-Jul-10 03:00N 60°07' E 004°45'4 7.4
2017-Jul-10 02:30N 60°06' E 004°38'223 7.3
2017-Jul-08 19:52N 59°02' W 002°23'410.7
2017-Jul-08 19:30N 59°01' W 002°30'611.4
2017-Jul-08 19:00N 59°00' W 002°41'611.1
2017-Jul-08 18:30N 59°01' W 002°51'3 6.7
2017-Jul-08 18:00N 58°60' W 002°58'0 0.2
2017-Jul-08 17:26N 58°60' W 002°58'0 0.0
2017-Jul-08 16:59N 58°60' W 002°58'0 0.0
2017-Jul-08 16:29N 58°60' W 002°58'0 0.1
2017-Jul-08 15:59N 58°60' W 002°58'0 0.0
2017-Jul-08 15:29N 58°60' W 002°58'0 0.1
2017-Jul-08 14:59N 58°60' W 002°58'0 0.0
2017-Jul-08 13:50N 58°60' W 002°58'0 0.0
2017-Jul-08 13:29N 58°60' W 002°58'0 0.0
2017-Jul-08 12:56N 58°60' W 002°58'0 0.0
2017-Jul-08 12:26N 58°60' W 002°58'0 0.0
2017-Jul-08 11:59N 58°60' W 002°58'0 0.0
2017-Jul-08 11:29N 58°60' W 002°58'0 0.0
2017-Jul-08 10:59N 58°60' W 002°58'0 0.0
2017-Jul-08 10:23N 58°60' W 002°58'0 0.1
2017-Jul-08 09:53N 58°60' W 002°57'0 0.0
2017-Jul-08 09:29N 58°60' W 002°57'0 0.0
2017-Jul-08 08:56N 58°60' W 002°57'0 0.0
2017-Jul-08 08:29N 58°60' W 002°58'0 0.0
2017-Jul-08 07:59N 58°60' W 002°57'0 0.0
2017-Jul-08 07:29N 58°60' W 002°58'0 0.0
2017-Jul-08 06:53N 58°60' W 002°58'0 0.0
2017-Jul-08 06:29N 58°60' W 002°58'0 0.0
2017-Jul-08 05:56N 58°60' W 002°57'0 0.0
2017-Jul-08 05:29N 58°60' W 002°57'0 0.0
2017-Jul-08 04:50N 58°60' W 002°58'0 0.0
2017-Jul-08 04:23N 58°60' W 002°58'0 0.0
2017-Jul-08 03:59N 58°60' W 002°58'0 0.0
2017-Jul-08 03:17N 58°60' W 002°58'0 0.0
2017-Jul-08 02:53N 58°60' W 002°58'0 0.0
2017-Jul-08 02:26N 58°60' W 002°58'0 0.0
2017-Jul-08 01:53N 58°60' W 002°57'0 0.0
2017-Jul-08 01:29N 58°60' W 002°57'0 0.1
2017-Jul-08 00:56N 58°60' W 002°57'0 0.0
2017-Jul-08 00:23N 58°60' W 002°57'0 0.0
2017-Jul-07 23:56N 58°60' W 002°57'0 0.1
2017-Jul-07 23:29N 58°60' W 002°58'0 0.1
2017-Jul-07 22:56N 58°60' W 002°57'0 0.0
2017-Jul-07 22:29N 58°60' W 002°57'0 0.0
2017-Jul-07 21:59N 58°60' W 002°57'0 0.0
2017-Jul-07 21:29N 58°60' W 002°57'0 0.0
2017-Jul-07 20:59N 58°60' W 002°57'0 0.0
2017-Jul-07 20:29N 58°60' W 002°57'0 0.0
2017-Jul-07 19:59N 58°60' W 002°57'0 0.0
2017-Jul-07 19:29N 58°60' W 002°57'0 0.0
2017-Jul-07 18:59N 58°60' W 002°58'0 0.0
2017-Jul-07 18:26N 58°60' W 002°57'0 0.1
2017-Jul-07 17:56N 58°60' W 002°57'0 0.0
2017-Jul-07 17:29N 58°60' W 002°58'0 0.0
2017-Jul-07 16:59N 58°60' W 002°57'0 0.0
2017-Jul-07 16:29N 58°60' W 002°57'0 0.0
2017-Jul-07 15:59N 58°60' W 002°57'0 0.0
2017-Jul-07 15:29N 58°60' W 002°58'0 0.0
2017-Jul-07 14:50N 58°60' W 002°57'0 0.0
2017-Jul-07 13:59N 58°60' W 002°57'0 0.1
2017-Jul-07 13:29N 58°60' W 002°58'0 0.0
2017-Jul-07 12:59N 58°60' W 002°58'0 0.1
2017-Jul-07 12:29N 58°60' W 002°58'0 0.1
2017-Jul-07 11:56N 58°60' W 002°58'0 0.8
2017-Jul-07 11:28N 59°00' W 002°57'3 7.0
2017-Jul-07 11:00N 59°01' W 002°51'510.3
2017-Jul-07 10:30N 58°59' W 002°42'510.9
2017-Jul-07 10:00N 58°54' W 002°36'611.2
2017-Jul-07 09:30N 58°49' W 002°33'5710.7
2017-Jul-07 04:13N 57°56' W 001°57'510.3
2017-Jul-07 03:44N 57°52' W 001°51'310.6
2017-Jul-07 03:30N 57°49' W 001°50'510.5
2017-Jul-07 03:00N 57°44' W 001°46'510.5
2017-Jul-07 02:30N 57°40' W 001°43'4 8.9
2017-Jul-07 02:00N 57°35' W 001°41'713.0
2017-Jul-07 01:30N 57°29' W 001°38'812.8
2017-Jul-07 00:52N 57°21' W 001°36'513.1
2017-Jul-07 00:28N 57°16' W 001°35'612.7
2017-Jul-07 00:00N 57°10' W 001°36'812.7
2017-Jul-06 23:24N 57°03' W 001°42'41 1.1
2017-Jul-05 08:30N 57°43' W 001°51'3 5.6
2017-Jul-05 08:00N 57°45' W 001°55'2 5.0
2017-Jul-05 07:30N 57°47' W 001°58'3 5.3
2017-Jul-05 07:00N 57°48' W 002°03'  

Dump ship's entire track history